Estación Meteorológica Peña el Pijo (Robertgarden) [ 02/03/23 04:46:17 CET ]

Fecha Hora Presion(HPa) Temp (°C) Humedad % Rocio (°C) Viento ( m/s) Direccion Lluvia 1Hora(mm) Lluvia 24H(mm) LLuvia Total(mm)
2012-Aug-24 01:01:13 1011.100 19.4 47 7.8         178.19
2012-Aug-24 02:01:18 1010.700 18.3 49 7.4         178.19
2012-Aug-24 03:01:46 1010.600 17.6 52 7.6         178.19
2012-Aug-24 04:03:16 1010.200 16.9 51 6.7         178.19
2012-Aug-24 05:01:14 1010.100 15.4 56 6.6         178.19
2012-Aug-24 06:01:14 1009.700 14.9 61 7.4         178.19
2012-Aug-24 07:01:14 1009.700 13.9 66 7.6         178.19
2012-Aug-24 08:01:16 1010.200 13.4 70 8.1         178.19
2012-Aug-24 09:01:18 1010.500 18.8 61 11.1         178.19
2012-Aug-24 10:01:18 1010.500 25.2 47 13.1         178.19
2012-Aug-24 11:01:15 1010.500 29.3 33 11.3         178.19
2012-Aug-24 12:01:16 1010.500 31.8 28 10.9         178.19
2012-Aug-24 13:01:16 1010.300 32.2 25 9.5         178.19
2012-Aug-24 14:01:12 1009.700 34.6 23 10.2         178.19
2012-Aug-24 15:01:15 1009.500 35.2 20 8.9         178.19
2012-Aug-24 16:01:23 1009.200 36.3 18 7.8         178.19
2012-Aug-24 17:01:14 1009.100 35.9 18 7.5         178.19
2012-Aug-24 18:01:14 1009.400 33.2 20 7.3 2.7 WSW     178.19
2012-Aug-24 19:01:16 1009.300 31.6 20 6.0         178.19
2012-Aug-24 20:01:13 1009.700 27.5 23 4.3         178.19
2012-Aug-24 21:01:17 1010.400 24.5 28 4.7         178.19
2012-Aug-24 22:01:13 1011.300 21.0 37 5.7         178.19
2012-Aug-24 23:01:19 1011.800 19.5 42 6.2         178.19

Temperatura Máxima:36°    Temperatura Mínima:13°
Presión Máxima:1011.800 Hpa    Presión Mínima:1009.100 Hpa


Volver